Time;durP1;ratioP1;P1;durP2;ratioP2;P2;SDS_P1;SDS_P2;PMS_P1;PMS_P2;Temp;Humidity;BMP_temperature;BMP_pressure;BME280_temperature;BME280_humidity;BME280_pressure;Samples;Min_cycle;Max_cycle;Signal;HPM_P1;HPM_P2
2024/02/11 00:01:32;;;;;;;;;;;;;;;;;;5135298;27;20260;-73
2024/02/11 00:03:58;;;;;;;;;;;;;;;;;;5134833;27;19984;-74
2024/02/11 00:06:24;;;;;;;;;;;;;;;;;;5135290;27;20418;-74
2024/02/11 00:08:51;;;;;;;;;;;;;;;;;;5135017;27;20368;-74
2024/02/11 00:11:17;;;;;;;;;;;;;;;;;;5134641;27;19957;-74
2024/02/11 00:13:43;;;;;;;;;;;;;;;;;;5134948;27;20252;-74
2024/02/11 00:16:09;;;;;;;;;;;;;;;;;;5134945;27;19908;-74
2024/02/11 00:18:35;;;;;;;;;;;;;;;;;;5134547;27;20006;-74
2024/02/11 00:21:01;;;;;;;;;;;;;;;;;;5135358;27;20372;-74
2024/02/11 00:23:29;;;;;;;;;;;;;;;;;;5134812;27;20306;-74
2024/02/11 00:25:55;;;;;;;;;;;;;;;;;;5116139;27;20017;-74
2024/02/11 00:28:21;;;;;;;;;;;;;;;;;;5134574;27;19962;-74
2024/02/11 00:30:47;;;;;;;;;;;;;;;;;;5115972;28;20276;-75
2024/02/11 00:33:13;;;;;;;;;;;;;;;;;;5134761;27;19919;-75
2024/02/11 00:35:40;;;;;;;;;;;;;;;;;;5116363;28;20027;-74
2024/02/11 00:38:06;;;;;;;;;;;;;;;;;;5134325;28;19908;-74
2024/02/11 00:40:32;;;;;;;;;;;;;;;;;;5134448;27;19908;-74
2024/02/11 00:43:01;;;;;;;;;;;;;;;;;;5134689;28;20420;-74
2024/02/11 00:45:29;;;;;;;;;;;;;;;;;;5134253;28;19952;-74
2024/02/11 00:47:55;;;;;;;;;;;;;;;;;;5134503;28;19916;-74
2024/02/11 00:50:20;;;;;;;;;;;;;;;;;;5135162;28;20374;-74
2024/02/11 00:52:49;;;;;;;;;;;;;;;;;;5134232;28;20363;-74
2024/02/11 00:55:15;;;;;;;;;;;;;;;;;;5116181;28;19907;-74
2024/02/11 00:57:41;;;;;;;;;;;;;;;;;;5134581;28;19908;-74
2024/02/11 01:00:10;;;;;;;;;;;;;;;;;;5134050;28;19908;-74
2024/02/11 01:02:36;;;;;;;;;;;;;;;;;;5134935;28;19931;-74
2024/02/11 01:05:03;;;;;;;;;;;;;;;;;;5134917;28;20351;-74
2024/02/11 01:07:30;;;;;;;;;;;;;;;;;;5134122;28;20405;-74
2024/02/11 01:09:56;;;;;;;;;;;;;;;;;;5134587;28;19919;-74
2024/02/11 01:12:23;;;;;;;;;;;;;;;;;;5134375;28;19907;-74
2024/02/11 01:14:49;;;;;;;;;;;;;;;;;;5134073;28;20368;-74
2024/02/11 01:17:19;;;;;;;;;;;;;;;;;;5134326;28;19907;-74
2024/02/11 01:19:45;;;;;;;;;;;;;;;;;;5134734;28;20251;-74
2024/02/11 01:22:11;;;;;;;;;;;;;;;;;;5133967;28;20048;-74
2024/02/11 01:24:37;;;;;;;;;;;;;;;;;;5134244;28;19998;-74
2024/02/11 01:27:03;;;;;;;;;;;;;;;;;;5133748;28;19920;-74
2024/02/11 01:29:29;;;;;;;;;;;;;;;;;;5134253;28;19915;-74
2024/02/11 01:31:55;;;;;;;;;;;;;;;;;;5134243;28;19919;-75
2024/02/11 01:34:21;;;;;;;;;;;;;;;;;;5133937;28;19908;-75
2024/02/11 01:36:47;;;;;;;;;;;;;;;;;;5134287;28;19908;-74
2024/02/11 01:39:16;;;;;;;;;;;;;;;;;;5134350;28;19960;-74
2024/02/11 01:41:42;;;;;;;;;;;;;;;;;;5134227;28;19914;-74
2024/02/11 01:44:07;;;;;;;;;;;;;;;;;;5115653;28;20338;-74
2024/02/11 01:46:33;;;;;;;;;;;;;;;;;;5134079;28;19983;-74
2024/02/11 01:49:03;;;;;;;;;;;;;;;;;;5115246;28;19916;-74
2024/02/11 01:51:33;;;;;;;;;;;;;;;;;;5134726;27;19907;-74
2024/02/11 01:53:59;;;;;;;;;;;;;;;;;;5137738;27;20026;-73
2024/02/11 01:56:25;;;;;;;;;;;;;;;;;;5137229;27;20395;-74
2024/02/11 01:58:51;;;;;;;;;;;;;;;;;;5138104;27;20324;-74
2024/02/11 02:01:17;;;;;;;;;;;;;;;;;;5137794;27;19912;-74
2024/02/11 02:03:43;;;;;;;;;;;;;;;;;;5137134;27;19914;-75
2024/02/11 02:06:10;;;;;;;;;;;;;;;;;;5137401;27;19907;-74
2024/02/11 02:08:35;;;;;;;;;;;;;;;;;;5137318;27;19915;-74
2024/02/11 02:11:03;;;;;;;;;;;;;;;;;;5136961;27;19933;-74
2024/02/11 02:13:29;;;;;;;;;;;;;;;;;;5137290;27;19939;-74
2024/02/11 02:15:55;;;;;;;;;;;;;;;;;;5137240;27;19915;-74
2024/02/11 02:18:21;;;;;;;;;;;;;;;;;;5136889;27;20352;-74
2024/02/11 02:20:47;;;;;;;;;;;;;;;;;;5137117;27;19957;-73
2024/02/11 02:23:13;;;;;;;;;;;;;;;;;;5136818;27;20009;-74
2024/02/11 02:25:39;;;;;;;;;;;;;;;;;;5137125;27;19913;-74
2024/02/11 02:28:05;;;;;;;;;;;;;;;;;;5136868;27;19919;-74
2024/02/11 02:30:31;;;;;;;;;;;;;;;;;;5118150;27;19915;-74
2024/02/11 02:32:57;;;;;;;;;;;;;;;;;;5136946;27;19907;-74
2024/02/11 02:35:23;;;;;;;;;;;;;;;;;;5136856;27;19914;-74
2024/02/11 02:37:49;;;;;;;;;;;;;;;;;;5136499;27;19907;-74
2024/02/11 02:40:15;;;;;;;;;;;;;;;;;;5137059;27;19952;-74
2024/02/11 02:42:41;;;;;;;;;;;;;;;;;;5118270;27;19907;-74
2024/02/11 02:45:07;;;;;;;;;;;;;;;;;;5136537;27;19908;-74
2024/02/11 02:47:32;;;;;;;;;;;;;;;;;;5136559;27;19908;-74
2024/02/11 02:49:58;;;;;;;;;;;;;;;;;;5136606;27;19907;-74
2024/02/11 02:52:25;;;;;;;;;;;;;;;;;;5136160;27;19915;-74
2024/02/11 02:54:51;;;;;;;;;;;;;;;;;;5136500;27;19915;-74
2024/02/11 02:57:18;;;;;;;;;;;;;;;;;;5136367;27;19948;-75
2024/02/11 02:59:44;;;;;;;;;;;;;;;;;;5136151;27;19908;-74
2024/02/11 03:02:12;;;;;;;;;;;;;;;;;;5136189;27;19953;-74
2024/02/11 03:04:38;;;;;;;;;;;;;;;;;;5136411;27;19912;-74
2024/02/11 03:07:06;;;;;;;;;;;;;;;;;;5135899;27;19907;-74
2024/02/11 03:09:32;;;;;;;;;;;;;;;;;;5136108;27;19923;-75
2024/02/11 03:11:58;;;;;;;;;;;;;;;;;;5136124;27;19908;-74
2024/02/11 03:14:24;;;;;;;;;;;;;;;;;;5135748;27;19914;-74
2024/02/11 03:16:50;;;;;;;;;;;;;;;;;;5135990;27;19990;-74
2024/02/11 03:19:16;;;;;;;;;;;;;;;;;;5136001;27;19960;-74
2024/02/11 03:21:44;;;;;;;;;;;;;;;;;;5135576;27;19908;-74
2024/02/11 03:24:10;;;;;;;;;;;;;;;;;;5136002;27;19953;-74
2024/02/11 03:26:36;;;;;;;;;;;;;;;;;;5135296;27;19908;-73
2024/02/11 03:29:03;;;;;;;;;;;;;;;;;;5135811;27;20015;-74
2024/02/11 03:31:29;;;;;;;;;;;;;;;;;;5135798;27;19908;-74
2024/02/11 03:33:55;;;;;;;;;;;;;;;;;;5135350;27;19968;-74
2024/02/11 03:36:21;;;;;;;;;;;;;;;;;;5135671;27;19962;-74
2024/02/11 03:38:47;;;;;;;;;;;;;;;;;;5135915;27;19907;-74
2024/02/11 03:41:13;;;;;;;;;;;;;;;;;;5135121;27;19907;-75
2024/02/11 03:43:39;;;;;;;;;;;;;;;;;;5135645;27;20264;-74
2024/02/11 03:46:07;;;;;;;;;;;;;;;;;;5135819;27;19907;-75
2024/02/11 03:48:33;;;;;;;;;;;;;;;;;;5135305;27;19915;-74
2024/02/11 03:51:00;;;;;;;;;;;;;;;;;;5135405;27;19914;-74
2024/02/11 03:53:26;;;;;;;;;;;;;;;;;;5135413;27;19908;-74
2024/02/11 03:55:52;;;;;;;;;;;;;;;;;;5135141;27;20377;-74
2024/02/11 03:58:18;;;;;;;;;;;;;;;;;;5135310;27;19998;-75
2024/02/11 04:00:44;;;;;;;;;;;;;;;;;;5116889;27;19907;-75
2024/02/11 04:03:10;;;;;;;;;;;;;;;;;;5134946;27;19907;-75
2024/02/11 04:05:39;;;;;;;;;;;;;;;;;;5135654;27;19907;-74
2024/02/11 04:08:07;;;;;;;;;;;;;;;;;;5135470;27;20286;-75
2024/02/11 04:10:36;;;;;;;;;;;;;;;;;;5135033;27;19930;-75
2024/02/11 04:13:02;;;;;;;;;;;;;;;;;;5135085;27;19966;-75
2024/02/11 04:15:28;;;;;;;;;;;;;;;;;;5134837;27;19907;-75
2024/02/11 04:17:56;;;;;;;;;;;;;;;;;;5134584;27;19907;-75
2024/02/11 04:20:26;;;;;;;;;;;;;;;;;;5135295;27;19992;-74
2024/02/11 04:22:55;;;;;;;;;;;;;;;;;;5134701;27;19984;-74
2024/02/11 04:25:22;;;;;;;;;;;;;;;;;;5134901;27;20010;-74
2024/02/11 04:27:48;;;;;;;;;;;;;;;;;;5134471;27;19980;-74
2024/02/11 04:30:15;;;;;;;;;;;;;;;;;;5134486;27;19954;-74
2024/02/11 04:32:41;;;;;;;;;;;;;;;;;;5134810;27;20329;-75
2024/02/11 04:35:10;;;;;;;;;;;;;;;;;;5116282;28;20270;-75
2024/02/11 04:37:35;;;;;;;;;;;;;;;;;;5134347;28;19916;-75
2024/02/11 04:40:10;;;;;;;;;;;;;;;;;;5134615;28;20256;-75
2024/02/11 04:42:35;;;;;;;;;;;;;;;;;;5134604;28;19956;-75
2024/02/11 04:45:05;;;;;;;;;;;;;;;;;;5115836;28;19908;-75
2024/02/11 04:47:30;;;;;;;;;;;;;;;;;;5134610;28;19907;-75
2024/02/11 04:49:58;;;;;;;;;;;;;;;;;;5134407;28;20026;-74
2024/02/11 04:52:25;;;;;;;;;;;;;;;;;;5134310;28;20419;-75
2024/02/11 04:54:51;;;;;;;;;;;;;;;;;;5134593;28;19942;-74
2024/02/11 04:57:17;;;;;;;;;;;;;;;;;;5134633;28;19908;-75
2024/02/11 04:59:43;;;;;;;;;;;;;;;;;;5134163;28;19952;-75
2024/02/11 05:02:09;;;;;;;;;;;;;;;;;;5134497;28;19994;-75
2024/02/11 05:04:36;;;;;;;;;;;;;;;;;;5134527;28;20027;-75
2024/02/11 05:07:03;;;;;;;;;;;;;;;;;;5134076;28;19994;-75
2024/02/11 05:09:37;;;;;;;;;;;;;;;;;;5134400;28;19969;-75
2024/02/11 05:12:07;;;;;;;;;;;;;;;;;;5134206;28;20435;-75
2024/02/11 05:14:34;;;;;;;;;;;;;;;;;;5135342;28;20271;-75
2024/02/11 05:17:02;;;;;;;;;;;;;;;;;;5134346;28;19953;-75
2024/02/11 05:19:29;;;;;;;;;;;;;;;;;;5133876;28;19933;-75
2024/02/11 05:21:55;;;;;;;;;;;;;;;;;;5134302;28;19912;-75
2024/02/11 05:24:21;;;;;;;;;;;;;;;;;;5134272;28;19908;-75
2024/02/11 05:26:47;;;;;;;;;;;;;;;;;;5134940;27;19920;-75
2024/02/11 05:29:14;;;;;;;;;;;;;;;;;;5138448;27;19919;-75
2024/02/11 05:31:41;;;;;;;;;;;;;;;;;;5138338;27;19908;-75
2024/02/11 05:34:07;;;;;;;;;;;;;;;;;;5137859;27;19956;-75
2024/02/11 05:36:35;;;;;;;;;;;;;;;;;;5119666;27;19912;-75
2024/02/11 05:39:01;;;;;;;;;;;;;;;;;;5138085;27;20447;-75
2024/02/11 05:41:26;;;;;;;;;;;;;;;;;;5137600;27;19954;-75
2024/02/11 05:43:52;;;;;;;;;;;;;;;;;;5138146;27;19907;-75
2024/02/11 05:46:18;;;;;;;;;;;;;;;;;;5138093;27;19915;-74
2024/02/11 05:48:44;;;;;;;;;;;;;;;;;;5137460;27;19915;-74
2024/02/11 05:51:10;;;;;;;;;;;;;;;;;;5137740;27;20356;-74
2024/02/11 05:53:36;;;;;;;;;;;;;;;;;;5137842;27;20271;-74
2024/02/11 05:56:04;;;;;;;;;;;;;;;;;;5137311;27;19907;-74
2024/02/11 05:58:31;;;;;;;;;;;;;;;;;;5137550;27;20316;-72
2024/02/11 06:00:57;;;;;;;;;;;;;;;;;;5137551;27;19908;-74
2024/02/11 06:03:23;;;;;;;;;;;;;;;;;;5118783;27;19954;-75
2024/02/11 06:05:49;;;;;;;;;;;;;;;;;;5137533;27;20323;-75
2024/02/11 06:08:15;;;;;;;;;;;;;;;;;;5137582;27;19911;-74
2024/02/11 06:10:41;;;;;;;;;;;;;;;;;;5137184;27;20251;-75
2024/02/11 06:13:08;;;;;;;;;;;;;;;;;;5137259;27;19918;-74
2024/02/11 06:15:37;;;;;;;;;;;;;;;;;;5136957;27;20316;-74
2024/02/11 06:18:03;;;;;;;;;;;;;;;;;;5137192;27;20006;-74
2024/02/11 06:20:29;;;;;;;;;;;;;;;;;;5137089;27;19947;-74
2024/02/11 06:22:55;;;;;;;;;;;;;;;;;;5118286;27;19941;-74
2024/02/11 06:25:22;;;;;;;;;;;;;;;;;;5137120;27;19954;-75
2024/02/11 06:27:48;;;;;;;;;;;;;;;;;;5136815;27;20423;-75
2024/02/11 06:30:14;;;;;;;;;;;;;;;;;;5136734;27;20006;-75
2024/02/11 06:32:40;;;;;;;;;;;;;;;;;;5118628;27;19916;-76
2024/02/11 06:35:06;;;;;;;;;;;;;;;;;;5137280;27;19981;-75
2024/02/11 06:37:32;;;;;;;;;;;;;;;;;;5136247;27;20416;-74
2024/02/11 06:39:58;;;;;;;;;;;;;;;;;;5136758;27;19915;-75
2024/02/11 06:42:26;;;;;;;;;;;;;;;;;;5137279;27;20344;-75
2024/02/11 06:44:53;;;;;;;;;;;;;;;;;;5136362;27;20363;-74
2024/02/11 06:47:19;;;;;;;;;;;;;;;;;;5136804;27;20379;-75
2024/02/11 06:49:45;;;;;;;;;;;;;;;;;;5118074;27;19919;-75
2024/02/11 06:52:11;;;;;;;;;;;;;;;;;;5136123;27;19907;-74
2024/02/11 06:54:38;;;;;;;;;;;;;;;;;;5136597;27;19907;-74
2024/02/11 06:57:04;;;;;;;;;;;;;;;;;;5136516;27;19908;-74
2024/02/11 06:59:32;;;;;;;;;;;;;;;;;;5136046;27;19930;-74
2024/02/11 07:01:59;;;;;;;;;;;;;;;;;;5136570;27;19908;-74
2024/02/11 07:04:25;;;;;;;;;;;;;;;;;;5136390;27;19934;-74
2024/02/11 07:06:53;;;;;;;;;;;;;;;;;;5135953;27;20371;-74
2024/02/11 07:09:22;;;;;;;;;;;;;;;;;;5136136;27;19916;-74
2024/02/11 07:11:48;;;;;;;;;;;;;;;;;;5135730;27;19907;-74
2024/02/11 07:14:15;;;;;;;;;;;;;;;;;;5136116;27;20045;-74
2024/02/11 07:16:43;;;;;;;;;;;;;;;;;;5136076;27;19914;-74
2024/02/11 07:19:09;;;;;;;;;;;;;;;;;;5135681;27;19913;-74
2024/02/11 07:21:37;;;;;;;;;;;;;;;;;;5136292;27;20006;-74
2024/02/11 07:24:04;;;;;;;;;;;;;;;;;;5136008;27;20011;-74
2024/02/11 07:26:30;;;;;;;;;;;;;;;;;;5116842;27;19907;-73
2024/02/11 07:28:56;;;;;;;;;;;;;;;;;;5136133;27;20440;-75
2024/02/11 07:31:22;;;;;;;;;;;;;;;;;;5135704;27;19950;-74
2024/02/11 07:33:49;;;;;;;;;;;;;;;;;;5135456;27;19908;-74
2024/02/11 07:36:15;;;;;;;;;;;;;;;;;;5135808;27;19930;-74
2024/02/11 07:38:41;;;;;;;;;;;;;;;;;;5135694;27;20364;-74
2024/02/11 07:41:08;;;;;;;;;;;;;;;;;;5116892;27;19908;-74
2024/02/11 07:43:33;;;;;;;;;;;;;;;;;;5135634;27;20383;-74
2024/02/11 07:46:01;;;;;;;;;;;;;;;;;;5117175;27;19914;-74
2024/02/11 07:48:28;;;;;;;;;;;;;;;;;;5135112;27;20416;-74
2024/02/11 07:50:53;;;;;;;;;;;;;;;;;;5134829;27;19914;-74
2024/02/11 07:53:19;;;;;;;;;;;;;;;;;;5117095;27;19908;-75
2024/02/11 07:55:45;;;;;;;;;;;;;;;;;;5135135;27;20101;-74
2024/02/11 07:58:11;;;;;;;;;;;;;;;;;;5135373;27;19907;-75
2024/02/11 08:00:38;;;;;;;;;;;;;;;;;;5135354;27;20378;-75
2024/02/11 08:03:07;;;;;;;;;;;;;;;;;;5116661;27;19908;-74
2024/02/11 08:05:33;;;;;;;;;;;;;;;;;;5135363;27;19908;-74
2024/02/11 08:07:59;;;;;;;;;;;;;;;;;;5134853;27;19908;-75
2024/02/11 08:10:25;;;;;;;;;;;;;;;;;;5135599;27;20004;-75
2024/02/11 08:12:52;;;;;;;;;;;;;;;;;;5135110;27;19907;-74
2024/02/11 08:15:18;;;;;;;;;;;;;;;;;;5134669;27;19915;-74
2024/02/11 08:17:44;;;;;;;;;;;;;;;;;;5116598;27;20279;-75
2024/02/11 08:20:10;;;;;;;;;;;;;;;;;;5135329;27;20247;-73
2024/02/11 08:22:39;;;;;;;;;;;;;;;;;;5134641;27;20343;-74
2024/02/11 08:25:07;;;;;;;;;;;;;;;;;;5134958;27;19960;-74
2024/02/11 08:27:33;;;;;;;;;;;;;;;;;;5134678;27;20019;-74
2024/02/11 08:29:59;;;;;;;;;;;;;;;;;;5134424;27;20022;-74
2024/02/11 08:32:25;;;;;;;;;;;;;;;;;;5134725;27;19980;-75
2024/02/11 08:34:51;;;;;;;;;;;;;;;;;;5134829;27;20000;-74
2024/02/11 08:37:17;;;;;;;;;;;;;;;;;;5134377;27;19915;-74
2024/02/11 08:39:43;;;;;;;;;;;;;;;;;;5134757;28;19908;-74
2024/02/11 08:42:09;;;;;;;;;;;;;;;;;;5134747;28;19949;-74
2024/02/11 08:44:35;;;;;;;;;;;;;;;;;;5134274;28;19976;-74
2024/02/11 08:47:02;;;;;;;;;;;;;;;;;;5134661;28;19915;-74
2024/02/11 08:49:31;;;;;;;;;;;;;;;;;;5134578;28;19951;-74
2024/02/11 08:51:58;;;;;;;;;;;;;;;;;;5134268;28;19982;-73
2024/02/11 08:54:24;;;;;;;;;;;;;;;;;;5134526;28;19995;-74
2024/02/11 08:56:50;;;;;;;;;;;;;;;;;;5116103;28;19953;-75
2024/02/11 08:59:16;;;;;;;;;;;;;;;;;;5134214;28;20359;-74
2024/02/11 09:01:42;;;;;;;;;;;;;;;;;;5137231;27;20424;-74
2024/02/11 09:04:09;;;;;;;;;;;;;;;;;;5138360;27;20252;-75
2024/02/11 09:06:35;;;;;;;;;;;;;;;;;;5138588;27;19912;-74
2024/02/11 09:09:01;;;;;;;;;;;;;;;;;;5138558;27;19922;-76
2024/02/11 09:11:27;;;;;;;;;;;;;;;;;;5138275;27;19968;-73
2024/02/11 09:13:53;;;;;;;;;;;;;;;;;;5138917;27;19907;-75
2024/02/11 09:16:19;;;;;;;;;;;;;;;;;;5138939;27;19914;-75
2024/02/11 09:18:45;;;;;;;;;;;;;;;;;;5138572;27;19912;-74
2024/02/11 09:21:11;;;;;;;;;;;;;;;;;;5138533;27;19914;-76
2024/02/11 09:23:37;;;;;;;;;;;;;;;;;;5138522;27;19908;-74
2024/02/11 09:26:04;;;;;;;;;;;;;;;;;;5138183;27;19907;-74
2024/02/11 09:28:30;;;;;;;;;;;;;;;;;;5119791;27;20312;-74
2024/02/11 09:30:56;;;;;;;;;;;;;;;;;;5138730;27;19964;-75
2024/02/11 09:33:22;;;;;;;;;;;;;;;;;;5138130;27;19907;-75
2024/02/11 09:35:48;;;;;;;;;;;;;;;;;;5138455;27;19914;-75
2024/02/11 09:38:15;;;;;;;;;;;;;;;;;;5138556;27;19907;-74
2024/02/11 09:40:43;;;;;;;;;;;;;;;;;;5137709;27;19962;-75
2024/02/11 09:43:09;;;;;;;;;;;;;;;;;;5138106;27;19954;-75
2024/02/11 09:45:35;;;;;;;;;;;;;;;;;;5137969;27;20069;-75
2024/02/11 09:48:01;;;;;;;;;;;;;;;;;;5137382;27;19915;-75
2024/02/11 09:50:27;;;;;;;;;;;;;;;;;;5137794;27;19994;-75
2024/02/11 09:52:53;;;;;;;;;;;;;;;;;;5137729;27;19912;-75
2024/02/11 09:55:19;;;;;;;;;;;;;;;;;;5137529;27;19962;-75
2024/02/11 09:57:46;;;;;;;;;;;;;;;;;;5137703;27;19990;-74
2024/02/11 10:00:12;;;;;;;;;;;;;;;;;;5119154;27;19907;-75
2024/02/11 10:02:38;;;;;;;;;;;;;;;;;;5137288;27;19914;-75
2024/02/11 10:05:05;;;;;;;;;;;;;;;;;;5137813;27;19908;-74
2024/02/11 10:07:31;;;;;;;;;;;;;;;;;;5137187;27;19911;-75
2024/02/11 10:09:57;;;;;;;;;;;;;;;;;;5137513;27;20267;-75
2024/02/11 10:12:24;;;;;;;;;;;;;;;;;;5118110;27;20358;-75
2024/02/11 10:14:51;;;;;;;;;;;;;;;;;;5137151;27;19914;-75
2024/02/11 10:17:17;;;;;;;;;;;;;;;;;;5137445;27;19907;-75
2024/02/11 10:19:43;;;;;;;;;;;;;;;;;;5137300;27;19915;-75
2024/02/11 10:22:10;;;;;;;;;;;;;;;;;;5136991;27;19914;-75
2024/02/11 10:24:37;;;;;;;;;;;;;;;;;;5137233;27;19911;-75
2024/02/11 10:27:03;;;;;;;;;;;;;;;;;;5137081;27;19972;-75
2024/02/11 10:29:29;;;;;;;;;;;;;;;;;;5136967;27;19919;-76
2024/02/11 10:31:55;;;;;;;;;;;;;;;;;;5137159;27;20290;-76
2024/02/11 10:34:21;;;;;;;;;;;;;;;;;;5137123;27;19907;-76
2024/02/11 10:36:47;;;;;;;;;;;;;;;;;;5136704;27;20232;-75
2024/02/11 10:39:13;;;;;;;;;;;;;;;;;;5136971;27;19915;-76
2024/02/11 10:41:41;;;;;;;;;;;;;;;;;;5136890;27;19908;-76
2024/02/11 10:44:07;;;;;;;;;;;;;;;;;;5136473;27;20275;-76
2024/02/11 10:46:33;;;;;;;;;;;;;;;;;;5118315;27;19913;-75
2024/02/11 10:48:59;;;;;;;;;;;;;;;;;;5136764;27;19916;-75
2024/02/11 10:51:27;;;;;;;;;;;;;;;;;;5136495;27;19953;-75
2024/02/11 10:53:53;;;;;;;;;;;;;;;;;;5136878;27;19907;-75
2024/02/11 10:56:19;;;;;;;;;;;;;;;;;;5136693;27;19991;-75
2024/02/11 10:58:45;;;;;;;;;;;;;;;;;;5136279;27;20450;-75
2024/02/11 11:01:11;;;;;;;;;;;;;;;;;;5118034;27;19907;-75
2024/02/11 11:03:39;;;;;;;;;;;;;;;;;;5136503;27;20356;-74
2024/02/11 11:06:06;;;;;;;;;;;;;;;;;;5117745;27;19908;-74
2024/02/11 11:08:32;;;;;;;;;;;;;;;;;;5117814;27;20010;-75
2024/02/11 11:10:59;;;;;;;;;;;;;;;;;;5135909;27;19908;-74
2024/02/11 11:13:25;;;;;;;;;;;;;;;;;;5138790;27;19918;-75
2024/02/11 11:15:52;;;;;;;;;;;;;;;;;;5136396;27;19908;-75
2024/02/11 11:18:18;;;;;;;;;;;;;;;;;;5135787;27;19930;-74
2024/02/11 11:20:46;;;;;;;;;;;;;;;;;;5136226;27;19907;-74
2024/02/11 11:23:13;;;;;;;;;;;;;;;;;;5135928;27;19914;-75
2024/02/11 11:25:39;;;;;;;;;;;;;;;;;;5135621;27;19908;-74
2024/02/11 11:28:05;;;;;;;;;;;;;;;;;;5135770;27;20344;-74
2024/02/11 11:30:31;;;;;;;;;;;;;;;;;;5135849;27;19976;-74
2024/02/11 11:33:02;;;;;;;;;;;;;;;;;;5135621;27;20002;-74
2024/02/11 11:35:30;;;;;;;;;;;;;;;;;;5136108;27;19929;-74
2024/02/11 11:37:56;;;;;;;;;;;;;;;;;;5135664;27;19958;-74
2024/02/11 11:40:22;;;;;;;;;;;;;;;;;;5135314;27;19907;-74
2024/02/11 11:42:48;;;;;;;;;;;;;;;;;;5117176;27;19946;-75
2024/02/11 11:45:17;;;;;;;;;;;;;;;;;;5135643;27;19954;-75
2024/02/11 11:47:43;;;;;;;;;;;;;;;;;;5135151;27;20054;-75
2024/02/11 11:50:09;;;;;;;;;;;;;;;;;;5135309;27;20013;-74
2024/02/11 11:52:35;;;;;;;;;;;;;;;;;;5135438;27;19908;-74
2024/02/11 11:55:03;;;;;;;;;;;;;;;;;;5135297;27;19907;-74
2024/02/11 11:57:29;;;;;;;;;;;;;;;;;;5135487;27;19907;-74
2024/02/11 11:59:55;;;;;;;;;;;;;;;;;;5135421;27;19915;-74
2024/02/11 12:02:21;;;;;;;;;;;;;;;;;;5134959;27;19907;-75
2024/02/11 12:04:46;;;;;;;;;;;;;;;;;;5135300;27;19998;-74
2024/02/11 12:07:13;;;;;;;;;;;;;;;;;;5134926;27;19961;-74
2024/02/11 12:09:38;;;;;;;;;;;;;;;;;;5135137;27;20014;-74
2024/02/11 12:12:05;;;;;;;;;;;;;;;;;;5116674;27;20003;-75
2024/02/11 12:14:31;;;;;;;;;;;;;;;;;;5134743;27;19912;-74
2024/02/11 12:16:57;;;;;;;;;;;;;;;;;;5135374;27;19907;-76
2024/02/11 12:19:23;;;;;;;;;;;;;;;;;;5135140;27;19908;-74
2024/02/11 12:21:49;;;;;;;;;;;;;;;;;;5134729;27;19908;-73
2024/02/11 12:24:15;;;;;;;;;;;;;;;;;;5134984;27;19912;-74
2024/02/11 12:26:41;;;;;;;;;;;;;;;;;;5135065;27;20313;-74
2024/02/11 12:29:07;;;;;;;;;;;;;;;;;;5134945;27;19960;-74
2024/02/11 12:31:33;;;;;;;;;;;;;;;;;;5135148;27;20359;-74
2024/02/11 12:33:59;;;;;;;;;;;;;;;;;;5134858;27;19907;-75
2024/02/11 12:36:29;;;;;;;;;;;;;;;;;;5133993;27;20355;-74
2024/02/11 12:38:55;;;;;;;;;;;;;;;;;;5134970;27;19907;-74
2024/02/11 12:41:24;;;;;;;;;;;;;;;;;;5134778;28;20371;-74
2024/02/11 12:43:50;;;;;;;;;;;;;;;;;;5134559;28;19908;-74
2024/02/11 12:46:16;;;;;;;;;;;;;;;;;;5134733;28;19964;-74
2024/02/11 12:48:42;;;;;;;;;;;;;;;;;;5134583;28;19916;-74
2024/02/11 12:51:10;;;;;;;;;;;;;;;;;;5134298;28;19908;-75
2024/02/11 12:53:38;;;;;;;;;;;;;;;;;;5134636;28;19911;-75
2024/02/11 12:56:05;;;;;;;;;;;;;;;;;;5116139;28;19911;-75
2024/02/11 12:58:31;;;;;;;;;;;;;;;;;;5134264;28;19912;-75
2024/02/11 13:00:57;;;;;;;;;;;;;;;;;;5134587;28;19908;-75
2024/02/11 13:03:23;;;;;;;;;;;;;;;;;;5134550;28;19907;-76
2024/02/11 13:05:50;;;;;;;;;;;;;;;;;;5134720;28;19908;-74
2024/02/11 13:08:16;;;;;;;;;;;;;;;;;;5134456;28;19919;-76
2024/02/11 13:10:42;;;;;;;;;;;;;;;;;;5115722;28;19953;-76
2024/02/11 13:13:09;;;;;;;;;;;;;;;;;;5116115;28;19953;-77
2024/02/11 13:15:35;;;;;;;;;;;;;;;;;;5134557;28;19915;-77
2024/02/11 13:18:01;;;;;;;;;;;;;;;;;;5115715;28;20302;-77
2024/02/11 13:20:28;;;;;;;;;;;;;;;;;;5134850;28;19908;-77
2024/02/11 13:22:54;;;;;;;;;;;;;;;;;;5134732;28;19908;-77
2024/02/11 13:25:22;;;;;;;;;;;;;;;;;;5134004;28;19930;-77
2024/02/11 13:27:48;;;;;;;;;;;;;;;;;;5134213;28;19919;-77
2024/02/11 13:30:14;;;;;;;;;;;;;;;;;;5134330;28;19916;-77
2024/02/11 13:32:40;;;;;;;;;;;;;;;;;;5134187;28;19960;-77
2024/02/11 13:35:10;;;;;;;;;;;;;;;;;;5134591;28;19912;-77
2024/02/11 13:37:37;;;;;;;;;;;;;;;;;;5134312;28;19912;-76
2024/02/11 13:40:04;;;;;;;;;;;;;;;;;;5133920;28;19907;-76
2024/02/11 13:42:30;;;;;;;;;;;;;;;;;;5134294;28;20278;-75
2024/02/11 13:44:56;;;;;;;;;;;;;;;;;;5134354;28;20035;-76
2024/02/11 13:47:21;;;;;;;;;;;;;;;;;;5134168;27;19959;-75
2024/02/11 13:49:48;;;;;;;;;;;;;;;;;;5137806;27;19916;-75
2024/02/11 13:52:13;;;;;;;;;;;;;;;;;;5119450;27;19956;-75
2024/02/11 13:54:40;;;;;;;;;;;;;;;;;;5137410;27;20317;-75
2024/02/11 13:57:06;;;;;;;;;;;;;;;;;;5137747;27;19958;-75
2024/02/11 13:59:33;;;;;;;;;;;;;;;;;;5137316;27;19995;-75
2024/02/11 14:01:59;;;;;;;;;;;;;;;;;;5137634;27;19914;-75
2024/02/11 14:04:25;;;;;;;;;;;;;;;;;;5137646;27;19908;-75
2024/02/11 14:06:51;;;;;;;;;;;;;;;;;;5137118;27;20585;-74
2024/02/11 14:09:17;;;;;;;;;;;;;;;;;;5137375;27;19911;-75
2024/02/11 14:11:43;;;;;;;;;;;;;;;;;;5137441;27;19915;-76
2024/02/11 14:14:10;;;;;;;;;;;;;;;;;;5118620;27;20359;-74
2024/02/11 14:16:36;;;;;;;;;;;;;;;;;;5137657;27;19918;-74
2024/02/11 14:19:04;;;;;;;;;;;;;;;;;;5137564;27;19907;-74
2024/02/11 14:21:31;;;;;;;;;;;;;;;;;;5137357;27;19911;-74
2024/02/11 14:23:57;;;;;;;;;;;;;;;;;;5137765;27;19908;-75
2024/02/11 14:26:23;;;;;;;;;;;;;;;;;;5137538;27;19930;-77
2024/02/11 14:28:49;;;;;;;;;;;;;;;;;;5137346;27;19915;-78
2024/02/11 14:31:15;;;;;;;;;;;;;;;;;;5137635;27;19911;-78
2024/02/11 14:33:43;;;;;;;;;;;;;;;;;;5137942;27;20375;-79
2024/02/11 14:36:09;;;;;;;;;;;;;;;;;;5137765;27;20415;-80
2024/02/11 14:38:39;;;;;;;;;;;;;;;;;;5137865;27;19907;-79
2024/02/11 14:41:08;;;;;;;;;;;;;;;;;;5138549;27;19911;-79
2024/02/11 14:43:35;;;;;;;;;;;;;;;;;;5137636;27;19907;-79
2024/02/11 14:46:00;;;;;;;;;;;;;;;;;;5138045;27;20008;-79
2024/02/11 14:48:26;;;;;;;;;;;;;;;;;;5139643;27;19947;-79
2024/02/11 14:50:52;;;;;;;;;;;;;;;;;;5152731;27;19918;-80
2024/02/11 14:53:18;;;;;;;;;;;;;;;;;;5154403;27;19930;-82
2024/02/11 14:55:45;;;;;;;;;;;;;;;;;;5148722;27;20283;-83
2024/02/11 14:58:12;;;;;;;;;;;;;;;;;;5137869;27;20007;-83
2024/02/11 15:00:39;;;;;;;;;;;;;;;;;;5137525;27;19919;-82
2024/02/11 15:03:05;;;;;;;;;;;;;;;;;;5137120;27;19911;-84
2024/02/11 15:05:32;;;;;;;;;;;;;;;;;;5137166;27;20044;-81
2024/02/11 15:07:58;;;;;;;;;;;;;;;;;;5136806;27;19907;-82
2024/02/11 15:10:24;;;;;;;;;;;;;;;;;;5136267;27;20456;-80
2024/02/11 15:12:50;;;;;;;;;;;;;;;;;;5118338;27;19914;-81
2024/02/11 15:15:18;;;;;;;;;;;;;;;;;;5136888;27;19908;-81
2024/02/11 15:17:44;;;;;;;;;;;;;;;;;;5136270;27;19929;-78
2024/02/11 15:20:10;;;;;;;;;;;;;;;;;;5136711;27;19911;-78
2024/02/11 15:22:36;;;;;;;;;;;;;;;;;;5136480;27;19961;-78
2024/02/11 15:25:03;;;;;;;;;;;;;;;;;;5135856;27;20002;-80
2024/02/11 15:27:29;;;;;;;;;;;;;;;;;;5135916;27;19926;-77
2024/02/11 15:29:55;;;;;;;;;;;;;;;;;;5135962;27;19968;-77
2024/02/11 15:32:26;;;;;;;;;;;;;;;;;;5117303;27;19911;-77
2024/02/11 15:34:52;;;;;;;;;;;;;;;;;;5136010;27;19911;-77
2024/02/11 15:37:19;;;;;;;;;;;;;;;;;;5136053;27;19959;-77
2024/02/11 15:39:45;;;;;;;;;;;;;;;;;;5135515;27;19969;-77
2024/02/11 15:42:11;;;;;;;;;;;;;;;;;;5135857;27;19935;-77
2024/02/11 15:44:37;;;;;;;;;;;;;;;;;;5117212;27;19908;-77
2024/02/11 15:47:03;;;;;;;;;;;;;;;;;;5135172;27;20363;-77
2024/02/11 15:49:28;;;;;;;;;;;;;;;;;;5135797;27;19915;-76
2024/02/11 15:51:54;;;;;;;;;;;;;;;;;;5135500;27;19967;-76
2024/02/11 15:54:20;;;;;;;;;;;;;;;;;;5135199;27;20275;-76
2024/02/11 15:56:47;;;;;;;;;;;;;;;;;;5135467;27;20274;-76
2024/02/11 15:59:14;;;;;;;;;;;;;;;;;;5116688;27;20256;-77
2024/02/11 16:01:40;;;;;;;;;;;;;;;;;;5135430;27;19960;-77
2024/02/11 16:04:08;;;;;;;;;;;;;;;;;;5135296;27;19971;-77
2024/02/11 16:06:34;;;;;;;;;;;;;;;;;;5134804;27;19939;-76
2024/02/11 16:09:00;;;;;;;;;;;;;;;;;;5135085;27;19966;-77
2024/02/11 16:11:26;;;;;;;;;;;;;;;;;;5134806;27;19911;-77
2024/02/11 16:13:52;;;;;;;;;;;;;;;;;;5135326;27;20002;-77
2024/02/11 16:16:19;;;;;;;;;;;;;;;;;;5135086;27;19953;-77
2024/02/11 16:18:44;;;;;;;;;;;;;;;;;;5135365;27;19914;-78
2024/02/11 16:21:13;;;;;;;;;;;;;;;;;;5134695;27;19907;-77
2024/02/11 16:23:41;;;;;;;;;;;;;;;;;;5135103;27;19914;-77
2024/02/11 16:26:06;;;;;;;;;;;;;;;;;;5135590;27;19914;-77
2024/02/11 16:28:32;;;;;;;;;;;;;;;;;;5115893;27;19919;-77
2024/02/11 16:31:01;;;;;;;;;;;;;;;;;;5134463;27;20209;-78
2024/02/11 16:33:33;;;;;;;;;;;;;;;;;;5134815;27;19952;-76
2024/02/11 16:35:59;;;;;;;;;;;;;;;;;;5134594;27;19911;-77
2024/02/11 16:38:24;;;;;;;;;;;;;;;;;;5134886;27;19908;-77
2024/02/11 16:40:50;;;;;;;;;;;;;;;;;;5134854;27;19909;-77